createdAt,value
2022-08-21T04:01:53.623Z,15.88
2022-08-21T04:04:25.805Z,17.60
2022-08-21T04:06:57.878Z,17.73
2022-08-21T04:09:29.641Z,19.65
2022-08-21T04:12:01.324Z,17.60
2022-08-21T04:14:33.028Z,19.08
2022-08-21T04:17:06.152Z,15.85
2022-08-21T04:19:37.829Z,15.40
2022-08-21T04:22:09.513Z,14.52
2022-08-21T04:24:41.179Z,18.05
2022-08-21T04:27:12.851Z,14.52
2022-08-21T04:29:44.537Z,14.83
2022-08-21T04:32:23.649Z,22.38
2022-08-21T04:34:59.376Z,15.15
2022-08-21T04:37:31.115Z,19.60
2022-08-21T04:40:03.438Z,13.63
2022-08-21T04:42:42.288Z,18.27
2022-08-21T04:45:18.568Z,18.02
2022-08-21T04:47:52.218Z,11.48
2022-08-21T04:50:27.276Z,12.60
2022-08-21T04:52:59.096Z,15.57
2022-08-21T04:55:30.852Z,18.23
2022-08-21T04:58:02.560Z,17.08
2022-08-21T05:00:34.242Z,15.02
2022-08-21T05:03:07.389Z,13.45
2022-08-21T05:05:39.430Z,10.10
2022-08-21T05:08:12.559Z,10.88
2022-08-21T05:10:44.287Z,8.23
2022-08-21T05:13:15.990Z,13.07
2022-08-21T05:15:47.674Z,10.35
2022-08-21T05:18:20.722Z,11.07
2022-08-21T05:20:53.454Z,8.00
2022-08-21T05:23:25.155Z,7.88
2022-08-21T05:25:56.846Z,8.68
2022-08-21T05:28:28.566Z,8.93
2022-08-21T05:31:00.254Z,7.20
2022-08-21T05:33:33.306Z,7.22
2022-08-21T05:36:07.897Z,7.93
2022-08-21T05:38:39.591Z,12.85
2022-08-21T05:41:11.302Z,7.70
2022-08-21T05:43:43.017Z,6.57
2022-08-21T05:46:14.719Z,8.38
2022-08-21T05:48:47.732Z,7.90
2022-08-21T05:51:19.424Z,8.70
2022-08-21T05:53:51.138Z,6.68
2022-08-21T05:56:22.820Z,7.25
2022-08-21T05:58:54.493Z,6.53
2022-08-21T06:01:26.236Z,4.85
2022-08-21T06:03:59.285Z,11.35
2022-08-21T06:06:33.121Z,7.10
2022-08-21T06:09:04.863Z,7.50
2022-08-21T06:11:36.921Z,9.45
2022-08-21T06:14:08.595Z,7.72
2022-08-21T06:16:40.281Z,6.60
2022-08-21T06:19:13.325Z,7.38
2022-08-21T06:21:45.008Z,10.68
2022-08-21T06:24:16.668Z,7.18
2022-08-21T06:26:48.362Z,6.28
2022-08-21T06:29:20.125Z,7.88
2022-08-21T06:31:52.577Z,5.90
2022-08-21T06:34:25.580Z,7.22
2022-08-21T06:36:57.261Z,7.35
2022-08-21T06:39:30.603Z,7.88
2022-08-21T06:42:04.384Z,10.45
2022-08-21T06:44:41.943Z,6.32
2022-08-21T06:47:13.619Z,6.90
2022-08-21T06:49:46.650Z,7.95
2022-08-21T06:52:18.956Z,6.55
2022-08-21T06:54:50.660Z,8.20
2022-08-21T06:57:22.351Z,7.75
2022-08-21T06:59:54.403Z,6.22
2022-08-21T07:02:26.461Z,6.95
2022-08-21T07:04:59.474Z,7.07
2022-08-21T07:07:31.174Z,9.70
2022-08-21T07:10:03.065Z,6.40
2022-08-21T07:12:34.752Z,9.52
2022-08-21T07:15:07.414Z,6.30
2022-08-21T07:17:39.108Z,5.97
2022-08-21T07:20:12.136Z,8.25
2022-08-21T07:22:45.154Z,4.90
2022-08-21T07:25:16.824Z,6.75
2022-08-21T07:27:48.513Z,6.75
2022-08-21T07:30:20.277Z,5.60
2022-08-21T07:32:52.323Z,6.72
2022-08-21T07:35:25.443Z,5.28
2022-08-21T07:37:57.141Z,5.50
2022-08-21T07:40:28.825Z,5.93
2022-08-21T07:43:00.725Z,6.93
2022-08-21T07:45:32.509Z,6.72
2022-08-21T07:48:04.720Z,7.03
2022-08-21T07:50:37.744Z,5.18
2022-08-21T07:53:09.424Z,5.63
2022-08-21T07:55:41.102Z,7.75
2022-08-21T07:58:12.803Z,5.40
2022-08-21T08:00:44.485Z,4.82
2022-08-21T08:03:27.529Z,6.32
2022-08-21T08:06:02.277Z,4.95
2022-08-21T08:08:34.019Z,7.10
2022-08-21T08:11:05.846Z,5.07
2022-08-21T08:13:39.778Z,6.50
2022-08-21T08:16:11.462Z,7.68
2022-08-21T08:18:43.166Z,8.18
2022-08-21T08:21:16.223Z,3.95
2022-08-21T08:23:47.952Z,7.32
2022-08-21T08:26:19.656Z,5.50
2022-08-21T08:28:51.333Z,7.32
2022-08-21T08:31:23.076Z,5.38
2022-08-21T08:33:54.776Z,4.60
2022-08-21T08:36:33.842Z,4.63
2022-08-21T08:39:06.908Z,5.80
2022-08-21T08:41:42.645Z,7.90
2022-08-21T08:44:14.504Z,8.63
2022-08-21T08:46:47.268Z,8.70
2022-08-21T08:49:21.183Z,5.88
2022-08-21T08:51:55.751Z,7.07
2022-08-21T08:54:30.361Z,5.70
2022-08-21T08:57:02.626Z,4.50
2022-08-21T08:59:36.477Z,5.00
2022-08-21T09:02:08.193Z,8.45
2022-08-21T09:04:39.860Z,5.05
2022-08-21T09:07:16.999Z,5.55
2022-08-21T09:09:56.640Z,5.47
2022-08-21T09:12:34.345Z,6.53
2022-08-21T09:15:11.042Z,5.97
2022-08-21T09:17:53.951Z,8.15
2022-08-21T09:20:30.777Z,8.20
2022-08-21T09:23:09.331Z,4.93
2022-08-21T09:25:43.016Z,7.40
2022-08-21T09:28:14.702Z,9.05
2022-08-21T09:30:46.410Z,6.43
2022-08-21T09:33:18.104Z,9.05
2022-08-21T09:35:51.659Z,7.32
2022-08-21T09:38:28.675Z,9.65
2022-08-21T09:41:02.412Z,7.30
2022-08-21T09:43:34.183Z,5.93
2022-08-21T09:46:09.802Z,6.22
2022-08-21T09:48:43.831Z,5.57
2022-08-21T09:51:16.962Z,5.50
2022-08-21T09:53:51.958Z,4.35
2022-08-21T09:56:28.102Z,6.68
2022-08-21T09:58:59.764Z,4.47
2022-08-21T10:01:31.443Z,6.50
2022-08-21T10:04:04.336Z,4.70
2022-08-21T10:06:36.157Z,9.40
2022-08-21T10:09:15.128Z,6.20
2022-08-21T10:11:53.415Z,5.90
2022-08-21T10:14:39.980Z,5.38
2022-08-21T10:17:16.389Z,5.40
2022-08-21T10:19:52.255Z,8.80
2022-08-21T10:22:30.857Z,6.40
2022-08-21T10:25:09.697Z,6.75
2022-08-21T10:27:45.560Z,7.18
2022-08-21T10:30:20.378Z,5.35
2022-08-21T10:32:58.935Z,5.70
2022-08-21T10:35:31.586Z,7.07
2022-08-21T10:38:48.872Z,4.07
2022-08-21T10:41:20.939Z,4.78
2022-08-21T10:43:57.010Z,5.82
2022-08-21T10:46:37.475Z,8.77
2022-08-21T10:49:14.838Z,5.78
2022-08-21T10:51:49.721Z,5.90
2022-08-21T10:54:27.483Z,6.97
2022-08-21T10:57:03.395Z,5.57
2022-08-21T10:59:38.833Z,4.65
2022-08-21T11:02:14.059Z,7.28
2022-08-21T11:04:53.172Z,4.93
2022-08-21T11:07:31.202Z,4.72
2022-08-21T11:10:11.817Z,6.57
2022-08-21T11:12:46.365Z,3.10
2022-08-21T11:15:30.028Z,7.68
2022-08-21T11:18:05.219Z,7.88
2022-08-21T11:20:40.786Z,4.07
2022-08-21T11:23:15.492Z,4.97
2022-08-21T11:25:50.007Z,7.55
2022-08-21T11:28:24.835Z,5.88
2022-08-21T11:31:01.787Z,5.82
2022-08-21T11:33:43.039Z,6.75
2022-08-21T11:36:19.277Z,5.75
2022-08-21T11:38:53.937Z,6.63
2022-08-21T11:41:29.272Z,4.00
2022-08-21T11:44:09.770Z,5.43
2022-08-21T11:46:45.321Z,5.45
2022-08-21T11:49:28.871Z,3.40
2022-08-21T11:52:07.810Z,5.18
2022-08-21T11:54:41.605Z,4.90
2022-08-21T11:57:17.928Z,3.92
2022-08-21T11:59:56.275Z,5.43
2022-08-21T12:02:30.310Z,4.75
2022-08-21T12:05:08.842Z,6.22
2022-08-21T12:07:42.258Z,2.85
2022-08-21T12:10:15.761Z,4.63
2022-08-21T12:12:47.540Z,4.63
2022-08-21T12:15:27.683Z,6.38
2022-08-21T12:18:00.554Z,5.45
2022-08-21T12:20:50.146Z,5.13
2022-08-21T12:23:28.020Z,4.85
2022-08-21T12:26:11.760Z,6.38
2022-08-21T12:28:43.504Z,10.82
2022-08-21T12:31:21.127Z,5.15
2022-08-21T12:33:55.936Z,4.47
2022-08-21T12:36:42.699Z,5.95
2022-08-21T12:39:15.889Z,2.50
2022-08-21T12:41:49.679Z,4.25
2022-08-21T12:44:23.597Z,4.53
2022-08-21T12:46:57.890Z,4.28
2022-08-21T12:49:31.200Z,3.80
2022-08-21T12:52:06.100Z,3.47
2022-08-21T12:54:39.549Z,4.50
2022-08-21T12:57:19.225Z,6.05
2022-08-21T12:59:55.137Z,5.68
2022-08-21T13:02:30.025Z,3.55
2022-08-21T13:05:03.890Z,7.63
2022-08-21T13:07:36.445Z,4.82
2022-08-21T13:10:15.555Z,3.90
2022-08-21T13:12:47.449Z,3.25
2022-08-21T13:15:24.868Z,4.95
2022-08-21T13:18:06.410Z,4.70
2022-08-21T13:20:40.764Z,8.02
2022-08-21T13:23:20.069Z,4.80
2022-08-21T13:25:51.792Z,5.03
2022-08-21T13:28:23.748Z,5.28
2022-08-21T13:30:55.582Z,2.72
2022-08-21T13:33:37.854Z,6.13
2022-08-21T13:36:10.971Z,5.22
2022-08-21T13:38:43.143Z,3.95
2022-08-21T13:41:21.253Z,5.30
2022-08-21T13:43:58.682Z,4.65
2022-08-21T13:46:37.380Z,4.75
2022-08-21T13:49:10.408Z,5.32
2022-08-21T13:51:42.100Z,5.65
2022-08-21T13:54:21.726Z,6.45
2022-08-21T13:56:53.745Z,4.28
2022-08-21T13:59:27.146Z,3.45
2022-08-21T14:01:59.729Z,4.68
2022-08-21T14:04:35.982Z,4.32
2022-08-21T14:07:16.089Z,4.80
2022-08-21T14:09:47.819Z,7.28
2022-08-21T14:12:27.109Z,4.55
2022-08-21T14:14:58.827Z,5.85
2022-08-21T14:17:34.197Z,6.70
2022-08-21T14:20:08.846Z,4.07
2022-08-21T14:22:41.828Z,6.85
2022-08-21T14:25:15.370Z,4.95
2022-08-21T14:27:50.871Z,4.80
2022-08-21T14:30:27.259Z,4.82
2022-08-21T14:32:59.117Z,4.93
2022-08-21T14:35:32.288Z,4.28
2022-08-21T14:38:05.152Z,5.95
2022-08-21T14:40:36.878Z,3.65
2022-08-21T14:43:08.599Z,4.13
2022-08-21T14:45:40.300Z,3.15
2022-08-21T14:48:12.100Z,4.68
2022-08-21T14:50:45.155Z,5.05
2022-08-21T14:53:16.834Z,4.00
2022-08-21T14:55:48.533Z,6.72
2022-08-21T14:58:20.608Z,5.47
2022-08-21T15:00:52.962Z,5.80
2022-08-21T15:03:24.704Z,4.57
2022-08-21T15:05:57.740Z,5.55
2022-08-21T15:08:29.446Z,4.50
2022-08-21T15:11:42.114Z,2.80
2022-08-21T15:13:56.120Z,5.30
2022-08-21T15:16:27.911Z,4.47
2022-08-21T15:19:00.892Z,3.40
2022-08-21T15:21:33.944Z,4.45
2022-08-21T15:24:05.787Z,3.60
2022-08-21T15:26:37.486Z,3.13
2022-08-21T15:29:09.246Z,5.78
2022-08-21T15:31:51.502Z,4.13
2022-08-21T15:34:27.135Z,8.40
2022-08-21T15:37:00.853Z,4.25
2022-08-21T15:39:35.289Z,3.83
2022-08-21T15:42:11.222Z,3.80
2022-08-21T15:44:43.494Z,5.63
2022-08-21T15:47:16.325Z,6.82
2022-08-21T15:49:48.026Z,4.47
2022-08-21T15:52:21.850Z,5.93
2022-08-21T15:54:53.624Z,5.18
2022-08-21T15:57:25.380Z,4.63
2022-08-21T15:59:57.870Z,5.05
2022-08-21T16:02:31.021Z,8.93
2022-08-21T16:05:02.907Z,6.43
2022-08-21T16:07:35.934Z,4.22
2022-08-21T16:10:08.242Z,4.40
2022-08-21T16:12:42.180Z,3.75
2022-08-21T16:15:20.195Z,3.13
2022-08-21T16:17:52.432Z,2.67
2022-08-21T16:20:25.379Z,4.25
2022-08-21T16:22:58.918Z,7.97
2022-08-21T16:25:30.851Z,3.05
2022-08-21T16:28:06.636Z,5.28
2022-08-21T16:30:40.648Z,3.67
2022-08-21T16:33:16.864Z,4.20
2022-08-21T16:35:48.568Z,5.63
2022-08-21T16:38:21.817Z,2.95
2022-08-21T16:40:53.577Z,3.72
2022-08-21T16:43:26.447Z,3.92
2022-08-21T16:45:58.159Z,3.72
2022-08-21T16:48:29.913Z,2.25
2022-08-21T16:51:01.627Z,6.15
2022-08-21T16:53:34.793Z,3.40
2022-08-21T16:56:06.962Z,3.17
2022-08-21T16:58:41.051Z,3.08
2022-08-21T17:01:14.053Z,4.82
2022-08-21T17:03:46.685Z,5.60
2022-08-21T17:06:18.806Z,3.10
2022-08-21T17:08:52.626Z,2.80
2022-08-21T17:11:36.803Z,2.60
2022-08-21T17:14:10.682Z,3.15
2022-08-21T17:16:44.781Z,3.83
2022-08-21T17:19:16.721Z,4.50
2022-08-21T17:21:48.535Z,3.53
2022-08-21T17:24:21.876Z,3.67
2022-08-21T17:26:53.727Z,4.18
2022-08-21T17:29:28.201Z,4.82
2022-08-21T17:32:00.066Z,4.82
2022-08-21T17:34:32.649Z,5.32
2022-08-21T17:37:04.418Z,4.72
2022-08-21T17:39:37.550Z,1.88
2022-08-21T17:42:12.202Z,3.83
2022-08-21T17:44:44.911Z,4.93
2022-08-21T17:47:16.762Z,4.10
2022-08-21T17:49:48.491Z,3.58
2022-08-21T17:52:20.208Z,5.43
2022-08-21T17:54:53.300Z,5.55
2022-08-21T17:57:25.068Z,3.83
2022-08-21T17:59:58.496Z,2.80
2022-08-21T18:02:30.383Z,6.65
2022-08-21T18:05:02.116Z,5.10
2022-08-21T18:07:33.889Z,4.05
2022-08-21T18:10:09.183Z,4.90
2022-08-21T18:12:41.403Z,6.15
2022-08-21T18:15:13.873Z,2.58
2022-08-21T18:17:46.601Z,5.05
2022-08-21T18:20:19.693Z,4.30
2022-08-21T18:22:51.414Z,4.45
2022-08-21T18:25:24.501Z,2.72
2022-08-21T18:27:56.225Z,4.10
2022-08-21T18:30:27.950Z,3.22
2022-08-21T18:32:59.806Z,3.17
2022-08-21T18:35:32.632Z,3.83
2022-08-21T18:38:04.529Z,3.35
2022-08-21T18:40:38.684Z,4.47
2022-08-21T18:43:10.374Z,3.83
2022-08-21T18:45:47.480Z,3.63
2022-08-21T18:48:19.227Z,3.95
2022-08-21T18:50:51.334Z,5.15
2022-08-21T18:53:27.849Z,3.78
2022-08-21T18:58:54.017Z,3.50
2022-08-21T19:01:25.954Z,2.17
2022-08-21T19:03:57.715Z,6.18
2022-08-21T19:06:29.395Z,7.20
2022-08-21T19:09:01.126Z,4.43
2022-08-21T19:11:34.297Z,6.18
2022-08-21T19:14:07.400Z,3.72
2022-08-21T19:16:47.527Z,7.15
2022-08-21T19:19:19.279Z,4.07
2022-08-21T19:21:52.047Z,6.13
2022-08-21T19:24:26.391Z,3.20
2022-08-21T19:27:00.184Z,6.43
2022-08-21T19:29:34.979Z,4.60
2022-08-21T19:32:07.368Z,3.50
2022-08-21T19:34:39.084Z,5.07
2022-08-21T19:37:11.443Z,6.15
2022-08-21T19:39:48.699Z,7.38
2022-08-21T19:42:28.925Z,6.88
2022-08-21T19:45:15.427Z,3.72
2022-08-21T19:47:48.076Z,5.25
2022-08-21T19:50:21.221Z,4.85
2022-08-21T19:52:53.467Z,3.70
2022-08-21T19:55:25.206Z,5.43
2022-08-21T19:57:58.322Z,5.38
2022-08-21T20:00:30.105Z,6.40
2022-08-21T20:03:01.992Z,7.07
2022-08-21T20:05:39.976Z,5.68
2022-08-21T20:08:20.468Z,5.95
2022-08-21T20:10:52.495Z,3.70
2022-08-21T20:13:25.658Z,3.90
2022-08-21T20:15:57.785Z,4.35
2022-08-21T20:18:29.634Z,5.30
2022-08-21T20:21:01.333Z,5.50
2022-08-21T20:23:34.092Z,8.05
2022-08-21T20:26:06.332Z,4.78
2022-08-21T20:28:39.753Z,7.00
2022-08-21T20:31:11.510Z,8.05
2022-08-21T20:33:46.571Z,3.50
2022-08-21T20:36:21.449Z,4.38
2022-08-21T20:38:53.183Z,12.40
2022-08-21T20:41:30.453Z,3.03
2022-08-21T20:44:04.470Z,4.03
2022-08-21T20:46:36.221Z,6.35
2022-08-21T20:49:08.103Z,6.80
2022-08-21T20:51:41.251Z,3.17
2022-08-21T20:54:16.814Z,6.65
2022-08-21T20:56:50.173Z,8.10
2022-08-21T20:59:33.211Z,4.03
2022-08-21T21:02:12.812Z,7.75
2022-08-21T21:04:47.115Z,3.97
2022-08-21T21:07:21.673Z,2.78
2022-08-21T21:09:53.530Z,7.72
2022-08-21T21:12:28.531Z,9.38
2022-08-21T21:15:11.675Z,6.55
2022-08-21T21:17:45.834Z,3.63
2022-08-21T21:20:20.948Z,6.03
2022-08-21T21:23:00.383Z,5.70
2022-08-21T21:28:35.134Z,5.38
2022-08-21T21:31:08.260Z,4.63
2022-08-21T21:33:40.113Z,4.70
2022-08-21T21:36:16.650Z,4.63
2022-08-21T21:38:52.902Z,8.82
2022-08-21T21:41:34.242Z,6.10
2022-08-21T21:44:17.143Z,7.13
2022-08-21T21:46:54.306Z,8.45
2022-08-21T21:49:53.280Z,8.27
2022-08-21T21:52:37.508Z,5.40
2022-08-21T21:55:23.711Z,9.23
2022-08-21T21:58:25.822Z,9.48
